createdAt,value
2022-09-13T00:00:03.003Z,78.16
2022-09-13T00:01:02.892Z,80.18
2022-09-13T00:02:02.526Z,79.06
2022-09-13T00:03:02.160Z,78.76
2022-09-13T00:04:01.952Z,78.66
2022-09-13T00:05:02.337Z,78.76
2022-09-13T00:06:01.975Z,78.56
2022-09-13T00:07:02.906Z,78.26
2022-09-13T00:08:02.531Z,78.26
2022-09-13T00:09:03.009Z,78.16
2022-09-13T00:10:02.802Z,78.46
2022-09-13T00:11:02.577Z,79.47
2022-09-13T00:12:02.091Z,79.27
2022-09-13T00:13:02.466Z,79.16
2022-09-13T00:14:02.595Z,80.62
2022-09-13T00:15:02.395Z,79.47
2022-09-13T00:16:02.225Z,79.16
2022-09-13T00:17:03.065Z,79.81
2022-09-13T00:18:02.897Z,79.81
2022-09-13T00:19:02.954Z,79.71
2022-09-13T00:20:02.748Z,79.41
2022-09-13T00:21:03.244Z,79.41
2022-09-13T00:22:02.758Z,79.41
2022-09-13T00:23:03.133Z,79.30
2022-09-13T00:24:03.158Z,79.30
2022-09-13T00:25:02.840Z,79.30
2022-09-13T00:26:03.348Z,79.10
2022-09-13T00:27:01.948Z,79.61
2022-09-13T00:28:02.426Z,79.50
2022-09-13T00:29:01.955Z,79.21
2022-09-13T00:30:02.423Z,79.21
2022-09-13T00:31:02.194Z,79.00
2022-09-13T00:32:02.155Z,78.80
2022-09-13T00:33:02.474Z,78.70
2022-09-13T00:34:01.986Z,78.90
2022-09-13T00:35:02.491Z,78.80
2022-09-13T00:36:02.041Z,79.81
2022-09-13T00:37:02.549Z,79.50
2022-09-13T00:38:03.049Z,80.82
2022-09-13T00:39:02.555Z,80.62
2022-09-13T00:40:02.509Z,80.11
2022-09-13T00:41:02.426Z,80.82
2022-09-13T00:42:02.916Z,80.11
2022-09-13T00:43:02.824Z,79.61
2022-09-13T00:44:03.106Z,80.72
2022-09-13T00:45:03.009Z,80.11
2022-09-13T00:46:02.861Z,80.51
2022-09-13T00:47:02.464Z,79.81
2022-09-13T00:48:03.053Z,79.61
2022-09-13T00:49:02.579Z,79.74
2022-09-13T00:50:02.368Z,79.44
2022-09-13T00:51:02.854Z,79.24
2022-09-13T00:52:02.622Z,79.34
2022-09-13T00:53:03.142Z,79.14
2022-09-13T00:54:02.672Z,79.14
2022-09-13T00:55:03.129Z,79.24
2022-09-13T00:56:02.569Z,79.14
2022-09-13T00:57:03.050Z,79.34
2022-09-13T00:58:03.545Z,79.64
2022-09-13T00:59:03.080Z,82.47
2022-09-13T01:00:02.973Z,81.05
2022-09-13T01:01:02.973Z,80.45
2022-09-13T01:02:02.643Z,80.05
2022-09-13T01:03:02.466Z,80.35
2022-09-13T01:04:02.904Z,80.05
2022-09-13T01:05:02.683Z,80.35
2022-09-13T01:06:02.472Z,80.35
2022-09-13T01:07:02.343Z,80.25
2022-09-13T01:08:01.927Z,79.94
2022-09-13T01:09:02.411Z,79.64
2022-09-13T01:10:01.745Z,80.15
2022-09-13T01:11:02.222Z,80.15
2022-09-13T01:12:02.461Z,80.05
2022-09-13T01:13:02.980Z,80.05
2022-09-13T01:14:02.823Z,79.85
2022-09-13T01:15:02.613Z,79.85
2022-09-13T01:16:02.642Z,79.94
2022-09-13T01:17:02.251Z,79.85
2022-09-13T01:18:01.958Z,79.94
2022-09-13T01:19:02.414Z,79.94
2022-09-13T01:20:02.203Z,79.94
2022-09-13T01:21:02.058Z,80.65
2022-09-13T01:22:02.543Z,80.45
2022-09-13T01:23:02.333Z,79.94
2022-09-13T01:24:02.743Z,83.48
2022-09-13T01:25:02.568Z,81.96
2022-09-13T01:26:02.380Z,82.37
2022-09-13T01:27:02.954Z,82.87
2022-09-13T01:28:02.513Z,82.78
2022-09-13T01:29:03.030Z,81.96
2022-09-13T01:30:02.827Z,81.67
2022-09-13T01:31:02.948Z,81.26
2022-09-13T01:32:02.385Z,81.05
2022-09-13T01:33:02.227Z,80.76
2022-09-13T01:34:02.733Z,80.35
2022-09-13T01:35:02.313Z,80.35
2022-09-13T01:36:02.596Z,80.25
2022-09-13T01:37:03.092Z,80.25
2022-09-13T01:38:03.330Z,80.05
2022-09-13T01:39:02.877Z,80.55
2022-09-13T01:40:03.234Z,80.65
2022-09-13T01:41:04.844Z,80.65
2022-09-13T01:42:02.481Z,80.76
2022-09-13T01:43:02.290Z,81.36
2022-09-13T01:44:02.178Z,81.67
2022-09-13T01:45:02.606Z,82.07
2022-09-13T01:46:02.324Z,82.51
2022-09-13T01:47:02.943Z,81.76
2022-09-13T01:48:02.728Z,81.26
2022-09-13T01:49:02.518Z,81.05
2022-09-13T01:50:02.848Z,80.76
2022-09-13T01:51:02.621Z,80.65
2022-09-13T01:52:02.401Z,80.85
2022-09-13T01:53:02.167Z,81.26
2022-09-13T01:54:02.365Z,81.36
2022-09-13T01:55:02.172Z,80.96
2022-09-13T01:56:01.968Z,80.96
2022-09-13T01:57:02.534Z,82.27
2022-09-13T01:58:02.337Z,82.47
2022-09-13T01:59:02.157Z,82.67
2022-09-13T02:00:02.082Z,83.58
2022-09-13T02:01:02.079Z,82.87
2022-09-13T02:02:02.604Z,82.17
2022-09-13T02:03:02.256Z,83.07
2022-09-13T02:04:02.658Z,82.91
2022-09-13T02:05:02.687Z,82.78
2022-09-13T02:06:02.195Z,83.68
2022-09-13T02:07:02.610Z,82.78
2022-09-13T02:08:02.318Z,83.78
2022-09-13T02:09:02.815Z,83.38
2022-09-13T02:10:02.442Z,83.78
2022-09-13T02:11:02.368Z,83.48
2022-09-13T02:12:02.891Z,83.18
2022-09-13T02:13:02.929Z,82.98
2022-09-13T02:14:02.412Z,82.78
2022-09-13T02:15:02.904Z,82.27
2022-09-13T02:16:02.824Z,82.17
2022-09-13T02:17:02.262Z,82.37
2022-09-13T02:18:02.092Z,82.27
2022-09-13T02:19:02.413Z,82.47
2022-09-13T02:20:02.266Z,82.17
2022-09-13T02:21:02.200Z,82.67
2022-09-13T02:22:02.709Z,82.27
2022-09-13T02:23:02.344Z,82.47
2022-09-13T02:24:02.238Z,82.78
2022-09-13T02:25:02.789Z,82.87
2022-09-13T02:26:02.321Z,82.57
2022-09-13T02:27:02.767Z,82.47
2022-09-13T02:28:02.520Z,82.17
2022-09-13T02:29:02.289Z,82.17
2022-09-13T02:30:02.808Z,81.96
2022-09-13T02:31:02.351Z,81.96
2022-09-13T02:32:03.510Z,82.17
2022-09-13T02:33:03.028Z,81.87
2022-09-13T02:34:02.970Z,81.56
2022-09-13T02:35:03.499Z,81.67
2022-09-13T02:36:03.273Z,81.36
2022-09-13T02:37:02.831Z,81.46
2022-09-13T02:38:02.620Z,81.26
2022-09-13T02:39:02.716Z,81.05
2022-09-13T02:40:02.676Z,81.05
2022-09-13T02:41:02.394Z,81.26
2022-09-13T02:42:02.866Z,81.46
2022-09-13T02:43:02.410Z,81.46
2022-09-13T02:44:02.486Z,82.07
2022-09-13T02:45:02.277Z,82.78
2022-09-13T02:46:02.936Z,82.98
2022-09-13T02:47:02.751Z,82.27
2022-09-13T02:48:02.601Z,82.13
2022-09-13T02:49:03.103Z,82.23
2022-09-13T02:50:02.912Z,82.07
2022-09-13T02:51:02.687Z,82.17
2022-09-13T02:52:02.232Z,82.17
2022-09-13T02:53:02.724Z,82.78
2022-09-13T02:54:02.467Z,83.07
2022-09-13T02:55:02.262Z,83.98
2022-09-13T02:56:02.758Z,83.98
2022-09-13T02:57:02.565Z,84.09
2022-09-13T02:58:03.132Z,83.58
2022-09-13T02:59:02.773Z,83.88
2022-09-13T03:00:02.589Z,84.49
2022-09-13T03:01:02.587Z,84.39
2022-09-13T03:02:03.232Z,85.30
2022-09-13T03:03:03.659Z,84.89
2022-09-13T03:04:03.615Z,83.98
2022-09-13T03:05:03.486Z,84.15
2022-09-13T03:06:03.197Z,84.69
2022-09-13T03:07:02.771Z,84.15
2022-09-13T03:08:03.302Z,83.95
2022-09-13T03:09:02.875Z,84.19
2022-09-13T03:10:02.743Z,83.78
2022-09-13T03:11:03.220Z,83.78
2022-09-13T03:12:03.003Z,83.64
2022-09-13T03:13:03.466Z,83.64
2022-09-13T03:14:02.961Z,83.14
2022-09-13T03:15:03.490Z,83.14
2022-09-13T03:16:03.442Z,84.35
2022-09-13T03:17:03.275Z,83.95
2022-09-13T03:18:03.837Z,83.54
2022-09-13T03:19:03.374Z,83.14
2022-09-13T03:20:03.849Z,82.53
2022-09-13T03:21:03.801Z,82.23
2022-09-13T03:22:03.028Z,82.23
2022-09-13T03:23:03.488Z,82.03
2022-09-13T03:24:02.895Z,82.13
2022-09-13T03:25:03.407Z,82.33
2022-09-13T03:26:03.263Z,82.13
2022-09-13T03:27:03.043Z,81.89
2022-09-13T03:28:03.455Z,82.19
2022-09-13T03:29:03.550Z,82.09
2022-09-13T03:30:03.107Z,81.99
2022-09-13T03:31:03.590Z,81.99
2022-09-13T03:32:03.707Z,82.19
2022-09-13T03:33:03.341Z,81.89
2022-09-13T03:34:03.197Z,81.68
2022-09-13T03:35:03.558Z,82.59
2022-09-13T03:36:03.359Z,82.19
2022-09-13T03:37:02.815Z,81.79
2022-09-13T03:38:03.298Z,81.48
2022-09-13T03:39:02.832Z,81.59
2022-09-13T03:40:03.379Z,81.68
2022-09-13T03:41:03.290Z,81.99
2022-09-13T03:42:03.096Z,82.29
2022-09-13T03:43:03.205Z,82.09
2022-09-13T03:44:03.584Z,81.79
2022-09-13T03:45:03.118Z,82.09
2022-09-13T03:46:03.329Z,82.19
2022-09-13T03:47:03.489Z,82.19
2022-09-13T03:48:03.302Z,82.29
2022-09-13T03:49:03.311Z,81.99
2022-09-13T03:50:03.103Z,81.99
2022-09-13T03:51:03.473Z,82.79
2022-09-13T03:52:03.076Z,82.79
2022-09-13T03:53:03.217Z,83.40
2022-09-13T03:54:03.723Z,83.40
2022-09-13T03:55:03.404Z,83.00
2022-09-13T03:56:03.239Z,83.20
2022-09-13T03:57:02.819Z,83.10
2022-09-13T03:58:02.628Z,83.00
2022-09-13T03:59:03.158Z,82.79
2022-09-13T04:00:02.764Z,83.00
2022-09-13T04:01:02.871Z,83.70
2022-09-13T04:02:02.512Z,83.00
2022-09-13T04:03:02.656Z,83.00
2022-09-13T04:04:02.279Z,82.90
2022-09-13T04:05:02.817Z,83.60
2022-09-13T04:06:02.796Z,83.40
2022-09-13T04:07:02.212Z,83.30
2022-09-13T04:08:02.197Z,83.10
2022-09-13T04:09:02.066Z,82.90
2022-09-13T04:10:01.883Z,83.30
2022-09-13T04:11:02.387Z,83.50
2022-09-13T04:12:01.911Z,83.91
2022-09-13T04:13:01.817Z,84.11
2022-09-13T04:14:02.126Z,83.50
2022-09-13T04:15:01.705Z,84.21
2022-09-13T04:16:01.720Z,84.11
2022-09-13T04:17:02.289Z,85.31
2022-09-13T04:18:02.123Z,85.82
2022-09-13T04:19:02.068Z,85.31
2022-09-13T04:20:02.009Z,84.81
2022-09-13T04:21:02.561Z,85.62
2022-09-13T04:22:02.940Z,85.11
2022-09-13T04:23:02.505Z,84.51
2022-09-13T04:24:02.951Z,84.51
2022-09-13T04:25:02.926Z,85.11
2022-09-13T04:26:02.758Z,84.81
2022-09-13T04:27:01.989Z,85.25
2022-09-13T04:28:01.876Z,85.05
2022-09-13T04:29:02.354Z,85.25
2022-09-13T04:30:02.145Z,85.56
2022-09-13T04:31:01.956Z,85.02
2022-09-13T04:32:02.600Z,85.31
2022-09-13T04:33:02.205Z,84.91
2022-09-13T04:34:02.332Z,84.51
2022-09-13T04:35:02.274Z,85.02
2022-09-13T04:36:02.146Z,85.11
2022-09-13T04:37:02.519Z,84.71
2022-09-13T04:38:02.087Z,84.11
2022-09-13T04:39:02.635Z,83.91
2022-09-13T04:40:02.235Z,83.40
2022-09-13T04:41:02.623Z,83.20
2022-09-13T04:42:02.076Z,83.00
2022-09-13T04:43:01.892Z,82.90
2022-09-13T04:44:01.754Z,82.90
2022-09-13T04:45:02.257Z,82.90
2022-09-13T04:46:01.919Z,82.79
2022-09-13T04:47:02.499Z,83.60
2022-09-13T04:48:02.374Z,83.50
2022-09-13T04:49:02.588Z,83.20
2022-09-13T04:50:02.203Z,83.00
2022-09-13T04:51:02.048Z,83.10
2022-09-13T04:52:02.559Z,83.20
2022-09-13T04:53:02.430Z,83.40
2022-09-13T04:54:02.514Z,83.30
2022-09-13T04:55:02.397Z,83.50
2022-09-13T04:56:02.230Z,83.70
2022-09-13T04:57:02.806Z,83.80
2022-09-13T04:58:02.489Z,83.80
2022-09-13T04:59:02.460Z,83.40
2022-09-13T05:00:02.325Z,83.40
2022-09-13T05:01:02.877Z,83.30
2022-09-13T05:02:02.204Z,83.10
2022-09-13T05:03:02.586Z,83.00
2022-09-13T05:04:02.246Z,82.90
2022-09-13T05:05:02.184Z,82.79
2022-09-13T05:06:02.130Z,83.10
2022-09-13T05:07:02.701Z,83.60
2022-09-13T05:08:02.290Z,83.70
2022-09-13T05:09:02.760Z,84.01
2022-09-13T05:10:02.431Z,83.80
2022-09-13T05:11:02.335Z,83.80
2022-09-13T05:12:02.933Z,83.91
2022-09-13T05:13:02.868Z,84.01
2022-09-13T05:14:02.569Z,83.91
2022-09-13T05:15:02.477Z,84.01
2022-09-13T05:16:02.685Z,83.70
2022-09-13T05:17:01.751Z,84.11
2022-09-13T05:18:02.365Z,83.50
2022-09-13T05:19:02.023Z,83.50
2022-09-13T05:20:01.826Z,83.50
2022-09-13T05:21:01.824Z,83.20
2022-09-13T05:22:03.046Z,83.76
2022-09-13T05:23:02.747Z,83.46
2022-09-13T05:24:02.760Z,83.20
2022-09-13T05:25:02.701Z,83.76
2022-09-13T05:26:02.887Z,83.97
2022-09-13T05:27:01.997Z,83.97
2022-09-13T05:28:01.898Z,84.17
2022-09-13T05:29:01.864Z,83.66
2022-09-13T05:30:02.091Z,84.27
2022-09-13T05:31:02.112Z,84.57
2022-09-13T05:32:02.150Z,84.57
2022-09-13T05:33:02.288Z,84.81
2022-09-13T05:34:02.452Z,84.71
2022-09-13T05:35:02.637Z,84.51
2022-09-13T05:36:02.282Z,85.02
2022-09-13T05:37:02.692Z,84.31
2022-09-13T05:38:02.820Z,83.87
2022-09-13T05:40:17.823Z,84.27
2022-09-13T05:41:02.444Z,84.17
2022-09-13T05:42:02.173Z,83.76
2022-09-13T05:43:02.596Z,83.46
2022-09-13T05:44:10.348Z,83.16
2022-09-13T05:45:02.081Z,83.46
2022-09-13T05:46:02.754Z,84.27
2022-09-13T05:47:02.462Z,83.76
2022-09-13T05:48:03.010Z,83.46
2022-09-13T05:49:02.745Z,82.96
2022-09-13T05:50:10.288Z,84.27
2022-09-13T05:51:02.626Z,83.76
2022-09-13T05:52:02.639Z,83.87
2022-09-13T05:53:03.168Z,83.97
2022-09-13T05:54:02.953Z,83.97
2022-09-13T05:55:02.984Z,84.17
2022-09-13T05:56:02.971Z,83.97
2022-09-13T05:57:01.884Z,83.36
2022-09-13T05:58:01.804Z,83.16
2022-09-13T05:59:01.746Z,82.96
2022-09-13T06:00:01.931Z,83.06
2022-09-13T06:01:01.987Z,83.36
2022-09-13T06:02:02.702Z,83.36
2022-09-13T06:03:02.682Z,83.66
2022-09-13T06:04:02.610Z,83.36
2022-09-13T06:05:02.592Z,83.02
2022-09-13T06:06:02.502Z,82.82
2022-09-13T06:07:02.172Z,82.62
2022-09-13T06:08:02.278Z,84.03
2022-09-13T06:09:02.407Z,83.52
2022-09-13T06:10:02.316Z,83.22
2022-09-13T06:11:02.258Z,83.02
2022-09-13T06:12:02.891Z,83.42
2022-09-13T06:13:02.898Z,83.62
2022-09-13T06:14:02.848Z,83.32
2022-09-13T06:15:02.733Z,83.22
2022-09-13T06:16:03.336Z,83.62
2022-09-13T06:17:02.117Z,83.72
2022-09-13T06:18:02.069Z,83.12
2022-09-13T06:19:02.122Z,83.32
2022-09-13T06:20:02.016Z,83.72
2022-09-13T06:21:02.310Z,83.72
2022-09-13T06:22:02.270Z,83.62
2022-09-13T06:23:02.575Z,83.72
2022-09-13T06:24:02.540Z,83.83
2022-09-13T06:25:02.266Z,83.93
2022-09-13T06:26:02.305Z,84.17
2022-09-13T06:27:02.965Z,84.37
2022-09-13T06:28:03.309Z,84.37
2022-09-13T06:29:03.001Z,84.47
2022-09-13T06:30:03.006Z,84.23
2022-09-13T06:31:03.043Z,84.23
2022-09-13T06:32:02.244Z,84.43
2022-09-13T06:33:02.163Z,84.23
2022-09-13T06:34:02.151Z,84.03
2022-09-13T06:35:02.232Z,84.13
2022-09-13T06:36:02.435Z,84.13
2022-09-13T06:37:02.687Z,84.23
2022-09-13T06:38:02.745Z,84.03
2022-09-13T06:39:02.875Z,83.93
2022-09-13T06:40:02.755Z,84.03
2022-09-13T06:41:02.572Z,84.13
2022-09-13T06:42:02.989Z,83.83
2022-09-13T06:43:03.006Z,83.72
2022-09-13T06:44:02.975Z,83.48
2022-09-13T06:45:02.847Z,83.39
2022-09-13T06:46:02.967Z,83.48
2022-09-13T06:47:02.504Z,83.39
2022-09-13T06:48:02.462Z,83.28
2022-09-13T06:49:02.407Z,83.04
2022-09-13T06:50:02.452Z,83.14
2022-09-13T06:51:02.803Z,83.25
2022-09-13T06:52:03.488Z,83.14
2022-09-13T06:53:03.264Z,82.64
2022-09-13T06:54:03.361Z,83.14
2022-09-13T06:55:03.388Z,83.25
2022-09-13T06:56:03.459Z,83.04
2022-09-13T06:57:02.900Z,83.04
2022-09-13T06:58:02.962Z,83.04
2022-09-13T06:59:02.959Z,83.14
2022-09-13T07:00:03.083Z,83.54
2022-09-13T07:01:02.752Z,82.90
2022-09-13T07:02:02.704Z,83.40
2022-09-13T07:03:02.598Z,83.20
2022-09-13T07:04:02.711Z,82.70
2022-09-13T07:05:02.552Z,82.50
2022-09-13T07:06:02.549Z,82.50
2022-09-13T07:07:03.318Z,82.80
2022-09-13T07:08:03.302Z,82.90
2022-09-13T07:09:03.260Z,82.70
2022-09-13T07:10:03.220Z,82.60
2022-09-13T07:11:03.192Z,82.70
2022-09-13T07:12:03.011Z,82.30
2022-09-13T07:13:02.629Z,82.30
2022-09-13T07:14:02.943Z,82.36
2022-09-13T07:15:03.059Z,82.46
2022-09-13T07:16:02.918Z,82.46
2022-09-13T07:17:02.726Z,82.56
2022-09-13T07:18:02.169Z,82.56
2022-09-13T07:19:02.534Z,82.36
2022-09-13T07:20:02.510Z,82.16
2022-09-13T07:21:02.182Z,82.12
2022-09-13T07:22:02.889Z,82.42
2022-09-13T07:23:02.609Z,81.72
2022-09-13T07:24:02.562Z,81.72
2022-09-13T07:25:02.528Z,81.72
2022-09-13T07:26:02.525Z,81.52
2022-09-13T07:27:02.747Z,81.68
2022-09-13T07:28:02.260Z,81.48
2022-09-13T07:29:02.861Z,81.27
2022-09-13T07:30:01.992Z,81.27
2022-09-13T07:31:02.076Z,81.18
2022-09-13T07:32:01.992Z,81.27
2022-09-13T07:33:02.193Z,81.27
2022-09-13T07:34:02.157Z,81.18
2022-09-13T07:35:02.290Z,81.07
2022-09-13T07:36:02.249Z,81.24
2022-09-13T07:37:02.930Z,81.04
2022-09-13T07:38:02.772Z,80.94
2022-09-13T07:39:02.818Z,81.34
2022-09-13T07:40:02.953Z,81.24
2022-09-13T07:41:02.709Z,80.94
2022-09-13T07:42:02.765Z,80.83
2022-09-13T07:43:02.765Z,80.54
2022-09-13T07:44:03.229Z,80.30
2022-09-13T07:45:03.296Z,80.50
2022-09-13T07:46:02.855Z,80.19
2022-09-13T07:47:02.995Z,80.50
2022-09-13T07:48:03.649Z,80.19
2022-09-13T07:49:03.294Z,79.90
2022-09-13T07:50:03.423Z,80.70
2022-09-13T07:51:03.396Z,79.96
2022-09-13T07:52:02.370Z,79.86
2022-09-13T07:53:02.422Z,79.75
2022-09-13T07:54:02.870Z,78.75
2022-09-13T07:55:02.912Z,79.05
2022-09-13T07:56:02.946Z,78.75
2022-09-13T07:57:02.948Z,79.12
2022-09-13T07:58:03.336Z,79.62
2022-09-13T07:59:02.964Z,79.12
2022-09-13T08:00:03.090Z,78.61
2022-09-13T08:01:03.110Z,79.68
2022-09-13T08:02:02.294Z,78.78
2022-09-13T08:03:02.451Z,78.78
2022-09-13T08:04:02.426Z,78.18
2022-09-13T08:05:02.411Z,78.94
2022-09-13T08:06:02.397Z,78.68
2022-09-13T08:07:02.781Z,78.24
2022-09-13T08:08:02.706Z,77.64
2022-09-13T08:09:02.779Z,78.14
2022-09-13T08:10:02.898Z,78.14
2022-09-13T08:11:02.951Z,77.14
2022-09-13T08:12:02.812Z,77.50
2022-09-13T08:13:03.306Z,77.60
2022-09-13T08:14:03.140Z,77.91
2022-09-13T08:15:02.753Z,78.27
2022-09-13T08:16:03.276Z,76.37
2022-09-13T08:17:02.259Z,76.46
2022-09-13T08:18:02.105Z,76.06
2022-09-13T08:19:02.175Z,76.46
2022-09-13T08:20:03.524Z,76.13
2022-09-13T08:21:02.235Z,75.73
2022-09-13T08:22:02.936Z,75.83
2022-09-13T08:23:02.997Z,76.63
2022-09-13T08:24:03.409Z,75.93
2022-09-13T08:25:03.423Z,75.52
2022-09-13T08:26:03.137Z,75.23
2022-09-13T08:27:02.427Z,74.83
2022-09-13T08:28:02.493Z,74.43
2022-09-13T08:29:02.512Z,75.52
2022-09-13T08:30:02.595Z,75.23
2022-09-13T08:31:02.422Z,75.79
2022-09-13T08:32:02.846Z,75.09
2022-09-13T08:33:03.080Z,74.79
2022-09-13T08:34:03.210Z,75.19
2022-09-13T08:35:02.855Z,76.79
2022-09-13T08:36:03.191Z,76.19
2022-09-13T08:37:03.079Z,74.66
2022-09-13T08:38:03.111Z,74.66
2022-09-13T08:39:03.073Z,74.76
2022-09-13T08:40:03.206Z,74.55
2022-09-13T08:41:03.258Z,74.22
2022-09-13T08:42:02.427Z,74.32
2022-09-13T08:43:02.456Z,74.02
2022-09-13T08:44:02.424Z,73.62
2022-09-13T08:45:02.755Z,73.72
2022-09-13T08:46:02.861Z,74.02
2022-09-13T08:47:02.629Z,73.69
2022-09-13T08:48:02.701Z,73.39
2022-09-13T08:49:02.974Z,72.89
2022-09-13T08:50:02.450Z,73.19
2022-09-13T08:51:02.437Z,73.25
2022-09-13T08:52:02.721Z,73.15
2022-09-13T08:53:02.575Z,73.05
2022-09-13T08:54:02.525Z,73.25
2022-09-13T08:55:02.871Z,73.05
2022-09-13T08:56:02.989Z,73.65
2022-09-13T08:57:03.207Z,72.81
2022-09-13T08:58:03.302Z,72.81
2022-09-13T08:59:03.333Z,72.52
2022-09-13T09:00:03.371Z,73.42
2022-09-13T09:01:03.438Z,73.38
2022-09-13T09:02:02.605Z,73.68
2022-09-13T09:03:02.563Z,73.98
2022-09-13T09:04:02.574Z,72.19
2022-09-13T09:05:02.324Z,71.78
2022-09-13T09:06:02.606Z,72.65
2022-09-13T09:07:02.693Z,73.85
2022-09-13T09:08:02.592Z,72.35
2022-09-13T09:09:02.568Z,71.25
2022-09-13T09:10:02.489Z,71.65
2022-09-13T09:11:02.488Z,72.22
2022-09-13T09:12:02.979Z,72.11
2022-09-13T09:13:03.095Z,72.52
2022-09-13T09:14:03.381Z,71.62
2022-09-13T09:15:02.978Z,71.81
2022-09-13T09:16:03.055Z,71.39
2022-09-13T09:17:02.837Z,70.98
2022-09-13T09:18:02.678Z,71.58
2022-09-13T09:19:02.760Z,70.98
2022-09-13T09:20:02.839Z,71.15
2022-09-13T09:21:02.753Z,70.75
2022-09-13T09:22:03.026Z,70.85
2022-09-13T09:23:03.349Z,71.65
2022-09-13T09:24:03.148Z,70.75
2022-09-13T09:25:02.822Z,70.42
2022-09-13T09:26:02.967Z,71.01
2022-09-13T09:27:03.463Z,70.82
2022-09-13T09:28:03.424Z,69.53
2022-09-13T09:29:03.476Z,68.83
2022-09-13T09:30:03.395Z,69.29
2022-09-13T09:31:03.372Z,68.90
2022-09-13T09:32:02.889Z,70.39
2022-09-13T09:33:02.946Z,68.50
2022-09-13T09:34:03.034Z,69.59
2022-09-13T09:35:03.047Z,69.96
2022-09-13T09:36:03.043Z,69.26
2022-09-13T09:37:02.835Z,68.57
2022-09-13T09:38:02.548Z,68.07
2022-09-13T09:39:02.561Z,67.77
2022-09-13T09:40:02.718Z,69.13
2022-09-13T09:41:02.856Z,67.34
2022-09-13T09:42:03.558Z,67.44
2022-09-13T09:43:03.488Z,68.63
2022-09-13T09:44:03.600Z,67.60
2022-09-13T09:45:03.669Z,68.50
2022-09-13T09:46:03.842Z,64.33
2022-09-13T09:47:03.326Z,64.73
2022-09-13T09:48:03.407Z,64.73
2022-09-13T09:49:03.225Z,65.92
2022-09-13T09:50:03.474Z,66.81
2022-09-13T09:51:03.194Z,67.11
2022-09-13T09:52:03.413Z,68.57
2022-09-13T09:53:03.355Z,69.26
2022-09-13T09:54:03.029Z,69.53
2022-09-13T09:55:03.037Z,67.94
2022-09-13T09:56:02.984Z,66.25
2022-09-13T09:57:03.810Z,65.86
2022-09-13T09:58:03.585Z,67.24
2022-09-13T09:59:03.573Z,68.20
2022-09-13T10:00:03.562Z,68.70
2022-09-13T10:01:03.673Z,68.30
2022-09-13T10:02:03.594Z,67.01
2022-09-13T10:03:03.660Z,67.57
2022-09-13T10:04:03.442Z,66.49
2022-09-13T10:05:03.179Z,65.20
2022-09-13T10:06:03.194Z,63.51
2022-09-13T10:07:03.198Z,67.38
2022-09-13T10:08:02.687Z,66.78
2022-09-13T10:09:02.653Z,64.80
2022-09-13T10:10:02.714Z,66.85
2022-09-13T10:11:03.247Z,65.17
2022-09-13T10:12:03.685Z,63.98
2022-09-13T10:13:03.674Z,62.69
2022-09-13T10:14:03.202Z,64.67
2022-09-13T10:15:03.295Z,63.09
2022-09-13T10:16:03.294Z,63.88
2022-09-13T10:17:03.115Z,65.92
2022-09-13T10:18:02.602Z,64.54
2022-09-13T10:19:02.764Z,63.35
2022-09-13T10:20:02.802Z,64.34
2022-09-13T10:21:02.759Z,64.34
2022-09-13T10:22:03.591Z,63.52
2022-09-13T10:23:03.539Z,64.51
2022-09-13T10:24:03.659Z,63.02
2022-09-13T10:25:03.343Z,63.82
2022-09-13T10:26:03.259Z,62.33
2022-09-13T10:27:04.015Z,61.83
2022-09-13T10:28:04.007Z,62.90
2022-09-13T10:29:03.873Z,61.41
2022-09-13T10:30:03.845Z,63.79
2022-09-13T10:31:03.812Z,61.71
2022-09-13T10:32:02.893Z,61.02
2022-09-13T10:33:03.530Z,61.80
2022-09-13T10:34:03.244Z,62.47
2022-09-13T10:35:03.105Z,60.89
2022-09-13T10:36:02.991Z,60.69
2022-09-13T10:37:02.991Z,60.10
2022-09-13T10:38:03.515Z,60.79
2022-09-13T10:39:03.428Z,60.69
2022-09-13T10:40:03.723Z,60.30
2022-09-13T10:41:03.590Z,60.59
2022-09-13T10:42:03.424Z,62.17
2022-09-13T10:43:03.496Z,61.08
2022-09-13T10:44:07.719Z,61.68
2022-09-13T10:45:03.579Z,61.48
2022-09-13T10:46:03.735Z,62.84
2022-09-13T10:47:03.662Z,64.51
2022-09-13T10:48:02.688Z,63.33
2022-09-13T10:49:02.722Z,61.05
2022-09-13T10:50:03.223Z,59.97
2022-09-13T10:51:03.525Z,57.70
2022-09-13T10:52:03.296Z,58.49
2022-09-13T10:53:03.998Z,59.28
2022-09-13T10:54:04.077Z,59.90
2022-09-13T10:55:03.700Z,61.18
2022-09-13T10:56:03.720Z,62.34
2022-09-13T10:57:03.650Z,62.34
2022-09-13T10:58:03.388Z,63.62
2022-09-13T10:59:03.409Z,62.60
2022-09-13T11:00:03.357Z,62.60
2022-09-13T11:01:03.545Z,60.43
2022-09-13T11:02:03.330Z,61.62
2022-09-13T11:03:03.220Z,62.41
2022-09-13T11:04:03.433Z,63.46
2022-09-13T11:05:03.471Z,62.87
2022-09-13T11:06:03.442Z,61.79
2022-09-13T11:07:03.485Z,61.98
2022-09-13T11:08:02.506Z,58.92
2022-09-13T11:09:02.550Z,58.06
2022-09-13T11:10:02.565Z,58.06
2022-09-13T11:11:02.312Z,56.58
2022-09-13T11:12:02.280Z,58.16
2022-09-13T11:13:02.979Z,56.68
2022-09-13T11:14:02.883Z,58.95
2022-09-13T11:15:02.893Z,59.64
2022-09-13T11:16:02.900Z,58.16
2022-09-13T11:17:02.942Z,59.15
2022-09-13T11:18:02.554Z,59.45
2022-09-13T11:19:02.424Z,59.94
2022-09-13T11:20:02.676Z,62.28
2022-09-13T11:21:02.567Z,61.19
2022-09-13T11:22:02.487Z,62.08
2022-09-13T11:23:03.242Z,60.38
2022-09-13T11:24:03.396Z,60.57
2022-09-13T11:25:03.114Z,59.29
2022-09-13T11:26:03.124Z,58.11
2022-09-13T11:27:03.043Z,58.89
2022-09-13T11:28:02.836Z,59.26
2022-09-13T11:29:02.845Z,60.94
2022-09-13T11:30:02.717Z,58.67
2022-09-13T11:31:02.733Z,60.15
2022-09-13T11:32:02.778Z,61.82
2022-09-13T11:33:02.809Z,58.45
2022-09-13T11:34:02.993Z,59.53
2022-09-13T11:35:02.796Z,60.81
2022-09-13T11:36:03.070Z,57.26
2022-09-13T11:37:02.955Z,58.25
2022-09-13T11:38:02.835Z,56.77
2022-09-13T11:39:02.752Z,58.81
2022-09-13T11:40:02.895Z,57.33
2022-09-13T11:41:03.073Z,59.70
2022-09-13T11:42:02.693Z,60.16
2022-09-13T11:43:03.276Z,56.91
2022-09-13T11:44:03.359Z,56.62
2022-09-13T11:45:03.327Z,59.38
2022-09-13T11:46:03.454Z,58.36
2022-09-13T11:47:03.186Z,58.16
2022-09-13T11:48:03.857Z,57.15
2022-09-13T11:49:03.816Z,56.00
2022-09-13T11:50:03.829Z,53.64
2022-09-13T11:51:03.988Z,54.13
2022-09-13T11:52:04.032Z,52.65
2022-09-13T11:53:03.546Z,53.74
2022-09-13T11:54:03.617Z,56.98
2022-09-13T11:55:03.188Z,58.33
2022-09-13T11:56:03.157Z,58.33
2022-09-13T11:57:03.219Z,57.71
2022-09-13T11:58:03.824Z,56.04
2022-09-13T11:59:03.891Z,53.29
2022-09-13T12:00:03.867Z,53.88
2022-09-13T12:01:04.012Z,56.93
2022-09-13T12:02:03.891Z,54.66
2022-09-13T12:03:02.741Z,54.47
2022-09-13T12:04:02.556Z,52.21
2022-09-13T12:05:21.563Z,54.17
2022-09-13T12:06:02.592Z,54.17
2022-09-13T12:07:02.170Z,54.83
2022-09-13T12:08:02.389Z,52.67
2022-09-13T12:09:02.433Z,53.06
2022-09-13T12:10:02.746Z,56.51
2022-09-13T12:11:02.294Z,57.49
2022-09-13T12:12:02.502Z,57.26
2022-09-13T12:13:03.186Z,56.87
2022-09-13T12:14:02.798Z,55.89
2022-09-13T12:15:03.030Z,50.68
2022-09-13T12:16:02.584Z,53.14
2022-09-13T12:17:03.234Z,52.77
2022-09-13T12:18:02.036Z,55.49
2022-09-13T12:19:02.124Z,57.26
2022-09-13T12:20:02.618Z,56.77
2022-09-13T12:21:02.493Z,53.73
2022-09-13T12:22:02.322Z,56.18
2022-09-13T12:23:02.955Z,55.57
2022-09-13T12:24:02.687Z,53.90
2022-09-13T12:25:02.636Z,55.76
2022-09-13T12:26:02.618Z,56.55
2022-09-13T12:27:02.596Z,58.22
2022-09-13T12:28:03.212Z,56.74
2022-09-13T12:29:02.741Z,55.83
2022-09-13T12:30:02.972Z,54.46
2022-09-13T12:31:03.051Z,55.15
2022-09-13T12:32:02.876Z,56.03
2022-09-13T12:33:02.840Z,55.74
2022-09-13T12:34:02.982Z,55.71
2022-09-13T12:35:03.036Z,54.14
2022-09-13T12:36:03.019Z,52.18
2022-09-13T12:37:03.009Z,52.57
2022-09-13T12:38:02.407Z,52.57
2022-09-13T12:39:02.999Z,54.44
2022-09-13T12:40:02.667Z,53.16
2022-09-13T12:41:02.605Z,51.59
2022-09-13T12:42:03.080Z,54.53
2022-09-13T12:43:02.798Z,54.83
2022-09-13T12:44:03.381Z,53.43
2022-09-13T12:45:03.004Z,54.41
2022-09-13T12:46:03.014Z,54.50
2022-09-13T12:47:03.076Z,53.03
2022-09-13T12:48:03.685Z,53.53
2022-09-13T12:49:03.055Z,55.66
2022-09-13T12:50:28.513Z,53.89
2022-09-13T12:51:03.366Z,53.69
2022-09-13T12:52:03.188Z,54.28
2022-09-13T12:53:02.139Z,51.54